Time;durP1;ratioP1;P1;durP2;ratioP2;P2;SDS_P1;SDS_P2;PMS_P1;PMS_P2;Temp;Humidity;BMP_temperature;BMP_pressure;BME280_temperature;BME280_humidity;BME280_pressure;Samples;Min_cycle;Max_cycle;Signal;HPM_P1;HPM_P2
2022/11/03 00:01:49;;;;;;;2.00;1.27;;;8.50;99.90;7.70;100663;;;;580697;244;24075;-80
2022/11/03 00:04:13;;;;;;;3.93;1.40;;;8.50;99.90;7.70;100664;;;;567314;249;24108;-80
2022/11/03 00:06:41;;;;;;;4.20;1.50;;;8.50;99.90;7.60;100659;;;;567877;248;24135;-79
2022/11/03 00:09:13;;;;;;;6.67;1.60;;;8.40;99.90;7.60;100667;;;;576064;247;24126;-81
2022/11/03 00:11:40;;;;;;;5.00;1.60;;;8.40;99.90;7.60;100676;;;;568293;249;24090;-80
2022/11/03 00:14:05;;;;;;;2.30;1.53;;;8.40;99.90;7.60;100668;;;;581007;244;24089;-79
2022/11/03 00:16:36;;;;;;;3.07;1.33;;;8.30;99.90;7.50;100676;;;;589923;243;24056;-80
2022/11/03 00:19:02;;;;;;;2.27;1.20;;;8.30;99.90;7.50;100676;;;;579986;244;24081;-79
2022/11/03 00:21:30;;;;;;;3.40;1.37;;;8.30;99.90;7.50;100682;;;;567006;249;24142;-80
2022/11/03 00:23:58;;;;;;;5.00;1.80;;;8.30;99.90;7.50;100680;;;;579805;244;24067;-80
2022/11/03 00:26:29;;;;;;;2.90;1.57;;;8.30;99.90;7.60;100684;;;;579774;244;24060;-80
2022/11/03 00:28:54;;;;;;;5.33;1.27;;;8.30;99.90;7.60;100677;;;;579348;244;24127;-80
2022/11/03 00:31:25;;;;;;;4.63;1.43;;;8.40;99.90;7.70;100681;;;;575328;248;24104;-80
2022/11/03 00:33:55;;;;;;;1.10;1.10;;;8.40;99.90;7.60;100678;;;;579553;244;24114;-79
2022/11/03 00:36:20;;;;;;;4.40;1.80;;;8.40;99.90;7.50;100682;;;;588330;244;24060;-80
2022/11/03 00:38:48;;;;;;;3.13;1.27;;;8.30;99.90;7.40;100680;;;;566294;249;24241;-80
2022/11/03 00:41:19;;;;;;;6.13;1.63;;;8.30;99.90;7.40;100681;;;;588346;243;24064;-79
2022/11/03 00:43:45;;;;;;;2.13;1.13;;;8.20;99.90;7.30;100693;;;;579352;244;24081;-80
2022/11/03 00:46:13;;;;;;;4.20;1.57;;;8.10;99.90;7.30;100686;;;;579289;244;25101;-79
2022/11/03 00:48:41;;;;;;;2.13;1.43;;;8.10;99.90;7.20;100687;;;;588156;244;24076;-79
2022/11/03 00:51:09;;;;;;;2.47;1.10;;;8.00;99.90;7.20;100688;;;;579419;244;24070;-80
2022/11/03 00:53:39;;;;;;;2.90;1.30;;;8.00;99.90;7.10;100685;;;;566044;248;24112;-79
2022/11/03 00:56:14;;;;;;;3.07;1.27;;;7.80;99.90;7.00;100695;;;;578859;244;24094;-80
2022/11/03 00:58:43;;;;;;;2.57;1.13;;;7.80;99.90;6.90;100698;;;;566296;249;24153;-79
2022/11/03 01:01:15;;;;;;;4.60;1.67;;;7.70;99.90;6.90;100706;;;;574231;244;35132;-80
2022/11/03 01:06:48;;;;;;;3.23;1.00;;;7.70;99.90;6.80;100704;;;;565763;249;24126;-80
2022/11/03 01:08:59;;;;;;;5.50;1.27;;;7.60;99.90;6.80;100704;;;;578616;244;24126;-80
2022/11/03 01:11:45;;;;;;;4.97;1.10;;;7.60;99.90;6.80;100708;;;;566026;249;24107;-80
2022/11/03 01:14:13;;;;;;;4.20;1.50;;;7.60;99.90;6.70;100707;;;;587482;243;24148;-78
2022/11/03 01:16:43;;;;;;;1.60;1.20;;;7.50;99.90;6.70;100716;;;;581961;244;24088;-80
2022/11/03 01:19:09;;;;;;;4.97;1.37;;;7.40;99.90;6.60;100700;;;;564376;250;24136;-79
2022/11/03 01:21:37;;;;;;;3.40;1.50;;;7.40;99.90;6.50;100711;;;;579106;242;24116;-79
2022/11/03 01:24:05;;;;;;;2.67;1.70;;;7.30;99.90;6.50;100707;;;;589262;243;24092;-80
2022/11/03 01:26:33;;;;;;;2.40;1.10;;;7.30;99.90;6.40;100708;;;;580249;244;24073;-80
2022/11/03 01:29:01;;;;;;;1.87;1.30;;;7.20;99.90;6.40;100703;;;;588589;243;24096;-80
2022/11/03 01:31:30;;;;;;;2.03;1.40;;;7.20;99.90;6.40;100702;;;;579351;244;24115;-79
2022/11/03 01:33:58;;;;;;;9.83;2.30;;;7.20;99.90;6.40;100711;;;;588226;244;24072;-79
2022/11/03 01:36:26;;;;;;;4.93;1.73;;;7.20;99.90;6.30;100705;;;;588343;243;24079;-80
2022/11/03 01:38:57;;;;;;;4.03;1.30;;;7.10;99.90;6.20;100710;;;;588467;243;24056;-80
2022/11/03 01:41:29;;;;;;;2.30;1.30;;;7.10;99.90;6.20;100701;;;;566226;248;24131;-80
2022/11/03 01:44:06;;;;;;;4.73;1.70;;;7.00;99.90;6.20;100699;;;;566690;248;24097;-81
2022/11/03 01:47:06;;;;;;;5.17;1.83;;;7.00;99.90;6.20;100707;;;;578568;244;24125;-80
2022/11/03 01:50:09;;;;;;;6.13;1.57;;;7.00;99.90;6.20;100714;;;;566637;249;24108;-79
2022/11/03 01:52:37;;;;;;;4.77;1.63;;;6.90;99.90;6.20;100717;;;;567239;249;24085;-81
2022/11/03 01:55:14;;;;;;;4.97;2.13;;;7.00;99.90;6.20;100717;;;;566321;248;25200;-81
2022/11/03 01:57:50;;;;;;;3.17;1.60;;;7.00;99.90;6.20;100722;;;;579475;244;24174;-80
2022/11/03 02:00:18;;;;;;;7.40;2.00;;;7.00;99.90;6.20;100711;;;;579496;244;24097;-79
2022/11/03 02:02:46;;;;;;;2.23;1.77;;;7.00;99.90;6.30;100724;;;;579291;244;24095;-80
2022/11/03 02:05:14;;;;;;;4.90;2.07;;;7.00;99.90;6.30;100719;;;;579531;244;24171;-79
2022/11/03 02:08:00;;;;;;;4.37;2.00;;;7.10;99.90;6.30;100725;;;;579407;244;24102;-80
2022/11/03 02:10:28;;;;;;;3.37;2.10;;;7.10;99.90;6.30;100723;;;;578972;244;24070;-81
2022/11/03 02:12:56;;;;;;;4.87;2.00;;;7.10;99.90;6.30;100726;;;;588412;244;24110;-79
2022/11/03 02:15:24;;;;;;;4.03;1.93;;;7.00;99.90;6.30;100722;;;;578983;244;24124;-79
2022/11/03 02:17:52;;;;;;;8.20;2.33;;;7.10;99.90;6.30;100727;;;;578972;244;24106;-79
2022/11/03 02:20:23;;;;;;;3.87;1.80;;;7.10;99.90;6.30;100723;;;;582000;244;24075;-79
2022/11/03 02:23:30;;;;;;;10.90;2.13;;;7.10;99.90;6.30;100730;;;;579048;244;24126;-79
2022/11/03 02:25:58;;;;;;;5.37;1.70;;;7.10;99.90;6.30;100728;;;;579099;244;24102;-81
2022/11/03 02:28:26;;;;;;;7.77;1.77;;;7.10;99.90;6.30;100725;;;;579202;244;24078;-80
2022/11/03 02:31:15;;;;;;;2.97;2.03;;;7.10;99.90;6.30;100733;;;;565952;249;24096;-79
2022/11/03 02:34:29;;;;;;;1.73;1.63;;;7.10;99.90;6.30;100730;;;;582661;243;24079;-80
2022/11/03 02:37:03;;;;;;;7.07;2.03;;;7.10;99.90;6.30;100725;;;;580541;243;24245;-79
2022/11/03 02:39:45;;;;;;;4.40;1.93;;;7.10;99.90;6.20;100738;;;;575047;249;24142;-80
2022/11/03 02:42:13;;;;;;;3.93;1.60;;;7.00;99.90;6.20;100738;;;;579826;244;24071;-80
2022/11/03 02:44:43;;;;;;;2.33;2.03;;;7.00;99.90;6.20;100742;;;;588612;244;24083;-79
2022/11/03 02:47:14;;;;;;;1.83;1.73;;;7.00;99.90;6.20;100736;;;;566871;249;24090;-79
2022/11/03 02:49:48;;;;;;;8.77;1.70;;;7.00;99.90;6.20;100739;;;;579803;244;24132;-80
2022/11/03 02:52:34;;;;;;;4.47;1.97;;;7.00;99.90;6.20;100746;;;;582449;244;24071;-80
2022/11/03 02:55:29;;;;;;;11.60;2.27;;;7.00;99.90;6.20;100749;;;;579606;244;24111;-79
2022/11/03 02:58:15;;;;;;;4.73;1.90;;;7.00;99.90;6.30;100746;;;;575582;244;24055;-79
2022/11/03 03:00:49;;;;;;;9.67;2.20;;;7.10;99.90;6.30;100750;;;;579628;244;24176;-79
2022/11/03 03:03:32;;;;;;;4.13;1.63;;;7.10;99.90;6.30;100739;;;;566580;248;24108;-80
2022/11/03 03:06:00;;;;;;;2.37;1.40;;;7.10;99.90;6.30;100746;;;;568223;249;24098;-79
2022/11/03 03:08:28;;;;;;;6.33;2.27;;;7.10;99.90;6.30;100745;;;;578543;244;24077;-80
2022/11/03 03:10:56;;;;;;;7.63;1.40;;;7.10;99.90;6.20;100740;;;;579073;244;24116;-80
2022/11/03 03:13:24;;;;;;;4.67;1.77;;;7.10;99.90;6.20;100744;;;;581388;244;24066;-81
2022/11/03 03:15:55;;;;;;;5.63;2.03;;;7.00;99.90;6.20;100741;;;;578806;244;24084;-79
2022/11/03 03:18:32;;;;;;;8.70;1.90;;;7.00;99.90;6.20;100740;;;;578376;244;24092;-79
2022/11/03 03:21:03;;;;;;;5.37;1.70;;;7.00;99.90;6.10;100721;;;;578654;244;24066;-79
2022/11/03 03:23:34;;;;;;;5.33;2.87;;;7.00;99.90;6.10;100738;;;;566154;249;24094;-79
2022/11/03 03:26:04;;;;;;;5.43;2.70;;;6.90;99.90;6.10;100742;;;;579351;244;24056;-79
2022/11/03 03:28:32;;;;;;;8.17;1.83;;;6.90;99.90;6.10;100741;;;;578912;244;24091;-79
2022/11/03 03:31:00;;;;;;;7.50;2.40;;;6.90;99.90;6.10;100746;;;;579095;244;24142;-80
2022/11/03 03:33:28;;;;;;;6.60;2.30;;;6.90;99.90;6.10;100747;;;;579374;244;24141;-80
2022/11/03 03:35:59;;;;;;;5.93;2.33;;;6.90;99.90;6.10;100755;;;;579487;244;24113;-80
2022/11/03 03:38:24;;;;;;;8.43;2.67;;;6.90;99.90;6.10;100761;;;;579346;244;24063;-79
2022/11/03 03:40:52;;;;;;;4.00;1.70;;;6.90;99.90;6.10;100759;;;;579424;244;24173;-80
2022/11/03 03:43:20;;;;;;;6.67;2.53;;;6.90;99.90;6.10;100760;;;;579433;244;24225;-79
2022/11/03 03:45:50;;;;;;;9.80;3.00;;;6.90;99.90;6.10;100758;;;;580363;243;24065;-80
2022/11/03 03:48:21;;;;;;;9.97;2.43;;;6.90;99.90;6.10;100749;;;;580517;244;24144;-82
2022/11/03 03:50:49;;;;;;;16.80;2.47;;;7.00;99.90;6.10;100755;;;;580304;244;24142;-79
2022/11/03 03:53:18;;;;;;;2.23;2.03;;;7.00;99.90;6.20;100761;;;;580022;244;24072;-79
2022/11/03 03:55:42;;;;;;;7.87;2.57;;;7.00;99.90;6.20;100764;;;;579434;244;24063;-80
2022/11/03 03:58:10;;;;;;;10.33;2.57;;;7.00;99.90;6.30;100753;;;;580180;244;24086;-80
2022/11/03 04:00:39;;;;;;;8.80;2.43;;;7.10;99.90;6.30;100756;;;;580087;244;24060;-81
2022/11/03 04:03:13;;;;;;;7.27;3.03;;;7.10;99.90;6.30;100760;;;;580164;244;24067;-80
2022/11/03 04:05:42;;;;;;;7.60;3.33;;;7.10;99.90;6.30;100767;;;;580051;244;24114;-81
2022/11/03 04:08:11;;;;;;;5.73;2.57;;;7.10;99.90;6.40;100769;;;;579598;244;24090;-81
2022/11/03 04:24:36;;;;;;;10.47;3.10;;;7.20;99.90;6.30;100770;;;;579509;244;24139;-80
2022/11/03 04:27:13;;;;;;;10.07;2.27;;;7.10;99.90;6.30;100779;;;;588321;244;24061;-79
2022/11/03 04:29:41;;;;;;;6.37;2.17;;;7.10;99.90;6.40;100780;;;;577899;244;24089;-79
2022/11/03 04:32:18;;;;;;;9.50;2.87;;;7.20;99.90;6.40;100778;;;;588654;244;24076;-78
2022/11/03 04:34:49;;;;;;;5.03;2.70;;;7.10;99.90;6.40;100779;;;;579724;244;24085;-79
2022/11/03 04:37:14;;;;;;;10.03;3.73;;;7.20;99.90;6.30;100781;;;;574959;244;35092;-79
2022/11/03 04:39:44;;;;;;;12.50;4.80;;;7.10;99.90;6.30;100781;;;;575261;244;35139;-80
2022/11/03 04:42:16;;;;;;;12.02;4.85;;;7.10;99.90;6.40;100774;;;;574822;244;35145;-80
2022/11/03 04:44:43;;;;;;;15.80;4.10;;;7.20;99.90;6.40;100779;;;;580258;244;24089;-81
2022/11/03 04:47:14;;;;;;;9.33;2.80;;;7.20;99.90;6.40;100765;;;;589495;242;24055;-80
2022/11/03 04:49:43;;;;;;;9.47;2.47;;;7.20;99.90;6.40;100766;;;;579915;244;24117;-79
2022/11/03 04:52:14;;;;;;;11.37;2.60;;;7.20;99.90;6.30;100769;;;;579553;244;24071;-80
2022/11/03 04:54:42;;;;;;;11.93;3.03;;;7.10;99.90;6.30;100776;;;;588398;244;24089;-80
2022/11/03 04:57:13;;;;;;;18.50;3.03;;;7.10;99.90;6.20;100770;;;;580411;242;24126;-79
2022/11/03 04:59:46;;;;;;;9.07;3.07;;;7.00;99.90;6.10;100766;;;;580598;244;24059;-80
2022/11/03 05:02:17;;;;;;;11.73;2.77;;;7.00;99.90;6.00;100777;;;;580196;244;24076;-79
2022/11/03 05:04:49;;;;;;;3.80;2.70;;;6.90;99.90;6.00;100769;;;;580525;244;24176;-79
2022/11/03 05:07:19;;;;;;;3.33;2.37;;;6.80;99.90;5.90;100773;;;;568001;249;24104;-79
2022/11/03 05:09:46;;;;;;;8.93;2.43;;;6.70;99.90;5.90;100776;;;;580344;244;25338;-79
2022/11/03 05:12:16;;;;;;;7.10;2.77;;;6.70;99.90;5.80;100773;;;;580627;244;24063;-79
2022/11/03 05:14:43;;;;;;;3.70;2.43;;;6.60;99.90;5.80;100774;;;;580208;244;24079;-79
2022/11/03 05:17:17;;;;;;;5.40;2.47;;;6.60;99.90;5.70;100781;;;;580012;244;24135;-79
2022/11/03 05:19:45;;;;;;;6.47;2.50;;;6.50;99.90;5.70;100776;;;;566800;249;24212;-80
2022/11/03 05:22:16;;;;;;;4.40;2.30;;;6.50;99.90;5.60;100776;;;;579463;244;24063;-81
2022/11/03 05:24:43;;;;;;;5.13;2.40;;;6.40;99.90;5.50;100769;;;;582944;244;24072;-78
2022/11/03 05:27:13;;;;;;;10.90;2.70;;;6.40;99.90;5.50;100770;;;;580322;244;24093;-79
2022/11/03 05:29:43;;;;;;;6.53;3.30;;;6.30;99.90;5.40;100774;;;;579297;244;24154;-79
2022/11/03 05:32:11;;;;;;;6.63;3.47;;;6.20;99.90;5.40;100772;;;;578914;244;24098;-77
2022/11/03 05:34:42;;;;;;;10.77;4.67;;;6.20;99.90;5.40;100779;;;;579416;244;24055;-79
2022/11/03 05:37:18;;;;;;;10.97;4.23;;;6.20;99.90;5.30;100774;;;;566536;246;24092;-80
2022/11/03 05:39:46;;;;;;;11.97;4.07;;;6.20;99.90;5.30;100770;;;;579106;244;24150;-79
2022/11/03 05:42:26;;;;;;;10.43;4.00;;;6.10;99.90;5.30;100780;;;;580036;244;24065;-80
2022/11/03 05:44:54;;;;;;;10.30;4.17;;;6.10;99.90;5.20;100766;;;;588058;244;24068;-79
2022/11/03 05:47:25;;;;;;;8.37;3.37;;;6.00;99.90;5.20;100767;;;;579133;244;24070;-80
2022/11/03 05:49:52;;;;;;;13.57;5.37;;;6.00;99.90;5.20;100761;;;;579207;244;24093;-80
2022/11/03 05:52:26;;;;;;;10.70;5.20;;;6.00;99.90;5.10;100769;;;;578881;244;24265;-81
2022/11/03 05:54:51;;;;;;;8.87;4.10;;;6.00;99.90;5.10;100768;;;;578970;244;24076;-81
2022/11/03 05:57:19;;;;;;;10.63;4.83;;;5.90;99.90;5.10;100765;;;;582052;244;24085;-80
2022/11/03 05:59:48;;;;;;;11.43;5.00;;;5.90;99.90;5.00;100774;;;;578985;244;24060;-80
2022/11/03 06:02:37;;;;;;;10.43;4.17;;;5.80;99.90;5.00;100767;;;;579077;244;24115;-80
2022/11/03 06:05:20;;;;;;;11.63;4.33;;;5.80;99.90;5.00;100775;;;;566011;249;24116;-80
2022/11/03 06:07:54;;;;;;;14.00;4.20;;;5.80;99.90;5.00;100778;;;;579456;242;24136;-80
2022/11/03 06:10:28;;;;;;;14.57;5.43;;;5.80;99.90;5.00;100777;;;;589174;243;24063;-80
2022/11/03 06:12:56;;;;;;;13.07;7.03;;;5.80;99.90;5.00;100775;;;;579961;244;24119;-80
2022/11/03 06:15:30;;;;;;;17.60;4.70;;;5.80;99.90;5.00;100769;;;;582425;244;24082;-81
2022/11/03 06:17:58;;;;;;;12.53;4.73;;;5.80;99.90;5.00;100769;;;;588692;243;24177;-80
2022/11/03 06:20:29;;;;;;;11.87;4.13;;;5.80;99.90;5.00;100764;;;;579253;244;24162;-80
2022/11/03 06:22:54;;;;;;;12.37;3.47;;;5.80;99.90;5.00;100773;;;;579520;244;24067;-80
2022/11/03 06:25:37;;;;;;;9.83;3.37;;;5.90;99.90;5.10;100778;;;;582593;244;24077;-79
2022/11/03 06:28:08;;;;;;;9.73;4.07;;;5.90;99.90;5.10;100778;;;;579457;244;24102;-80
2022/11/03 06:30:36;;;;;;;9.30;4.00;;;5.90;99.90;5.10;100774;;;;579132;244;24067;-80
2022/11/03 06:33:01;;;;;;;10.90;4.10;;;5.90;99.90;5.10;100781;;;;581845;244;24103;-80
2022/11/03 06:35:29;;;;;;;11.77;4.40;;;6.00;99.90;5.20;100790;;;;579165;244;24094;-80
2022/11/03 06:37:57;;;;;;;18.27;5.00;;;6.00;99.90;5.30;100790;;;;588455;243;24120;-80
2022/11/03 06:40:34;;;;;;;9.93;4.37;;;6.10;99.90;5.30;100803;;;;588296;242;24099;-80
2022/11/03 06:43:20;;;;;;;9.47;3.90;;;6.10;99.90;5.40;100797;;;;566365;249;24118;-81
2022/11/03 06:45:56;;;;;;;11.10;3.50;;;6.20;99.90;5.50;100797;;;;579051;244;24104;-80
2022/11/03 06:48:26;;;;;;;5.33;2.80;;;6.30;99.90;5.50;100803;;;;574591;249;24124;-80
2022/11/03 06:50:57;;;;;;;3.87;2.20;;;6.40;99.90;5.60;100802;;;;578270;244;24186;-80
2022/11/03 06:53:25;;;;;;;9.37;2.60;;;6.40;99.90;5.70;100801;;;;578822;244;24114;-81
2022/11/03 06:55:53;;;;;;;4.53;2.47;;;6.50;99.90;5.80;100808;;;;578813;244;24104;-81
2022/11/03 06:58:32;;;;;;;9.57;3.07;;;6.50;99.90;5.80;100807;;;;578849;244;24145;-81
2022/11/03 07:01:15;;;;;;;4.63;2.40;;;6.70;99.90;5.90;100806;;;;578954;244;24077;-81
2022/11/03 07:03:46;;;;;;;6.77;2.63;;;6.70;99.90;6.00;100806;;;;578923;244;24124;-80
2022/11/03 07:06:17;;;;;;;9.10;2.43;;;6.80;99.90;6.00;100812;;;;587983;244;24078;-80
2022/11/03 07:08:46;;;;;;;5.23;2.07;;;6.80;99.90;6.10;100811;;;;587900;244;24103;-79
2022/11/03 07:11:16;;;;;;;5.53;2.53;;;6.90;99.90;6.20;100810;;;;565808;249;24163;-80
2022/11/03 07:13:44;;;;;;;5.43;3.30;;;7.00;99.90;6.30;100818;;;;579438;244;24100;-80
2022/11/03 07:16:30;;;;;;;3.73;1.90;;;7.10;99.90;6.40;100820;;;;587976;242;24073;-80
2022/11/03 07:19:04;;;;;;;5.97;2.70;;;7.10;99.90;6.40;100828;;;;566169;247;24167;-80
2022/11/03 07:21:37;;;;;;;7.40;2.10;;;7.20;99.90;6.50;100825;;;;589178;242;24087;-80
2022/11/03 07:24:05;;;;;;;4.80;2.10;;;7.30;99.90;6.60;100827;;;;579751;244;24080;-80
2022/11/03 07:26:37;;;;;;;9.50;2.00;;;7.40;99.90;6.70;100830;;;;564749;249;24270;-80
2022/11/03 07:29:02;;;;;;;8.23;2.13;;;7.60;99.90;6.80;100821;;;;579299;244;24074;-80
2022/11/03 07:31:30;;;;;;;8.67;2.73;;;7.60;99.90;6.90;100829;;;;579576;244;24184;-81
2022/11/03 07:33:58;;;;;;;5.10;2.20;;;7.60;99.90;6.90;100829;;;;579539;244;25106;-79
2022/11/03 07:36:25;;;;;;;13.77;2.07;;;7.70;99.90;7.00;100829;;;;579535;244;24057;-79
2022/11/03 07:38:53;;;;;;;5.93;2.33;;;7.80;99.90;7.10;100834;;;;579343;244;24060;-79
2022/11/03 07:41:24;;;;;;;4.47;2.00;;;7.90;99.90;7.20;100822;;;;581987;244;24095;-80
2022/11/03 07:43:58;;;;;;;6.50;2.77;;;7.90;99.90;7.30;100830;;;;588224;244;24125;-80
2022/11/03 07:46:23;;;;;;;4.07;2.70;;;8.10;99.90;7.40;100835;;;;578933;244;24115;-81
2022/11/03 07:48:58;;;;;;;5.63;2.77;;;8.10;99.90;7.50;100831;;;;579232;244;24086;-80
2022/11/03 07:51:35;;;;;;;7.27;2.77;;;8.30;99.90;7.60;100844;;;;566396;249;24104;-81
2022/11/03 07:54:08;;;;;;;7.47;3.60;;;8.40;99.90;7.90;100846;;;;579149;244;24091;-80
2022/11/03 07:56:39;;;;;;;12.57;3.53;;;9.40;99.90;8.70;100837;;;;578907;244;24067;-81
2022/11/03 07:59:10;;;;;;;8.77;3.77;;;9.40;99.90;9.90;100849;;;;578851;244;24185;-81
2022/11/03 08:01:47;;;;;;;5.97;2.93;;;10.50;99.90;11.30;100856;;;;579474;244;26266;-81
2022/11/03 08:04:27;;;;;;;7.67;3.10;;;11.90;99.90;13.10;100852;;;;579489;244;24090;-82
2022/11/03 08:06:52;;;;;;;6.33;2.73;;;13.80;99.90;15.10;100859;;;;588575;244;24096;-80
2022/11/03 08:09:20;;;;;;;5.73;2.60;;;15.70;99.90;17.10;100862;;;;588245;244;24059;-81
2022/11/03 08:11:48;;;;;;;6.60;2.80;;;17.60;99.90;19.00;100866;;;;588129;244;24127;-80
2022/11/03 08:14:16;;;;;;;6.07;2.37;;;19.40;99.90;20.40;100859;;;;579146;244;24069;-82
2022/11/03 08:16:47;;;;;;;5.67;2.33;;;20.90;99.90;21.40;100862;;;;579329;244;23189;-80
2022/11/03 08:19:12;;;;;;;14.70;3.73;;;22.10;99.90;22.60;100851;;;;574990;244;24060;-82
2022/11/03 08:21:40;;;;;;;4.77;2.60;;;23.30;99.90;23.60;100855;;;;588013;244;24123;-81
2022/11/03 08:24:08;;;;;;;9.10;2.60;;;24.30;99.10;24.20;100846;;;;588190;244;24208;-81
2022/11/03 08:26:36;;;;;;;8.90;3.60;;;25.00;93.20;24.70;100845;;;;588659;244;24179;-80
2022/11/03 08:29:04;;;;;;;5.60;3.27;;;25.60;89.20;25.20;100853;;;;588150;244;23078;-80
2022/11/03 08:31:32;;;;;;;8.47;4.07;;;26.90;78.00;26.10;100844;;;;588713;242;24123;-80
2022/11/03 08:34:00;;;;;;;5.50;2.97;;;26.80;77.70;26.70;100848;;;;580162;244;24049;-81
2022/11/03 08:36:29;;;;;;;7.30;3.00;;;27.50;71.00;26.70;100838;;;;589289;243;23065;-80
2022/11/03 08:38:57;;;;;;;8.50;3.00;;;27.80;69.10;27.30;100847;;;;579879;244;23056;-81
2022/11/03 08:41:25;;;;;;;7.57;3.47;;;28.30;65.50;27.70;100844;;;;588412;243;23143;-81
2022/11/03 08:43:53;;;;;;;8.63;3.07;;;28.70;63.40;27.90;100839;;;;588469;243;23077;-79
2022/11/03 08:46:21;;;;;;;8.43;2.63;;;29.10;62.20;28.40;100849;;;;588222;243;23082;-79
2022/11/03 08:48:52;;;;;;;9.10;2.80;;;29.60;60.70;28.90;100846;;;;588465;243;24102;-79
2022/11/03 08:51:17;;;;;;;8.13;3.33;;;30.30;57.20;28.90;100846;;;;588133;243;23121;-79
2022/11/03 08:53:49;;;;;;;7.43;2.78;;;30.30;56.80;29.50;100845;;;;588604;243;24240;-80
2022/11/03 08:56:13;;;;;;;6.07;2.87;;;30.80;55.20;29.50;100839;;;;579289;244;24108;-80
2022/11/03 08:58:45;;;;;;;4.32;2.30;;;30.90;55.10;29.60;100848;;;;587851;243;23104;-80
2022/11/03 09:01:09;;;;;;;5.82;2.50;;;31.10;53.90;29.90;100853;;;;578935;244;23101;-80
2022/11/03 09:03:41;;;;;;;6.80;2.22;;;31.30;53.20;30.20;100856;;;;587941;243;24108;-80
2022/11/03 09:06:09;;;;;;;6.55;2.00;;;31.60;50.60;30.20;100860;;;;579120;244;23110;-80
2022/11/03 09:08:34;;;;;;;8.05;2.55;;;31.60;50.60;30.00;100858;;;;565807;249;24141;-79
2022/11/03 09:11:02;;;;;;;5.12;1.73;;;31.60;50.60;30.20;100860;;;;587894;243;23116;-80
2022/11/03 09:13:31;;;;;;;4.05;2.20;;;31.70;50.00;30.00;100859;;;;587912;244;23092;-80
2022/11/03 09:15:59;;;;;;;5.65;2.20;;;31.60;50.30;29.60;100856;;;;588365;244;23069;-80
2022/11/03 09:18:28;;;;;;;4.82;1.58;;;31.20;49.80;28.90;100853;;;;588520;244;23074;-80
2022/11/03 09:20:56;;;;;;;7.20;1.87;;;30.60;50.20;28.00;100857;;;;588422;244;24107;-81
2022/11/03 09:23:24;;;;;;;4.57;2.00;;;29.60;50.40;26.40;100855;;;;589073;244;23057;-80
2022/11/03 09:25:51;;;;;;;5.40;2.13;;;28.00;51.70;24.60;100854;;;;589223;244;23102;-81
2022/11/03 09:28:20;;;;;;;4.67;2.00;;;24.80;55.90;22.80;100849;;;;579910;244;23154;-81
2022/11/03 09:30:51;;;;;;;4.57;1.50;;;24.70;55.90;21.50;100858;;;;588572;244;24091;-82
2022/11/03 09:33:16;;;;;;;3.53;1.83;;;23.30;58.90;20.40;100846;;;;579677;244;24115;-80
2022/11/03 09:35:44;;;;;;;4.73;2.10;;;21.90;61.10;19.40;100851;;;;579448;244;24092;-81
2022/11/03 09:38:12;;;;;;;6.37;1.87;;;20.80;64.00;18.60;100844;;;;579586;244;24138;-82
2022/11/03 09:40:40;;;;;;;5.13;1.50;;;19.90;66.90;17.90;100833;;;;588584;244;24099;-81
2022/11/03 09:43:08;;;;;;;4.07;1.50;;;18.40;71.60;17.30;100851;;;;589125;242;24048;-79
2022/11/03 09:45:36;;;;;;;4.37;1.47;;;18.40;71.50;16.70;100844;;;;589590;243;24058;-81
2022/11/03 09:48:07;;;;;;;13.53;1.77;;;17.80;74.00;16.20;100834;;;;580210;244;24104;-81
2022/11/03 09:50:33;;;;;;;8.90;1.33;;;16.60;77.70;15.80;100839;;;;588948;244;24069;-80
2022/11/03 09:53:02;;;;;;;3.57;1.77;;;16.20;79.50;15.40;100835;;;;588494;243;24065;-80
2022/11/03 09:55:30;;;;;;;2.57;1.20;;;16.10;79.40;15.00;100833;;;;579640;244;24132;-80
2022/11/03 09:57:58;;;;;;;11.07;1.70;;;15.80;81.10;14.70;100835;;;;588294;243;24068;-80
2022/11/03 10:00:26;;;;;;;7.83;0.90;;;15.40;82.50;14.30;100830;;;;582620;244;24107;-80
2022/11/03 10:02:57;;;;;;;4.53;1.37;;;15.00;84.50;14.10;100833;;;;578988;244;24121;-80
2022/11/03 10:05:24;;;;;;;6.07;1.30;;;14.70;86.20;13.80;100831;;;;588345;244;24139;-81
2022/11/03 10:07:53;;;;;;;6.33;1.23;;;14.20;90.00;13.60;100831;;;;579558;244;24133;-80
2022/11/03 10:10:24;;;;;;;1.83;1.13;;;14.20;89.90;13.40;100834;;;;579043;244;24079;-81
2022/11/03 10:12:52;;;;;;;4.80;1.13;;;14.00;90.70;13.30;100821;;;;579621;244;24106;-80
2022/11/03 10:15:18;;;;;;;2.07;1.37;;;13.90;91.60;13.10;100824;;;;579619;244;24078;-82
2022/11/03 10:17:49;;;;;;;2.83;1.10;;;13.70;91.70;13.00;100827;;;;588638;244;24071;-79
2022/11/03 10:20:17;;;;;;;4.37;1.10;;;13.60;92.30;12.90;100828;;;;587889;244;24095;-80
2022/11/03 10:22:42;;;;;;;8.27;1.33;;;13.50;93.00;12.80;100825;;;;578743;244;24127;-80
2022/11/03 10:25:38;;;;;;;3.10;0.90;;;13.30;94.70;12.70;100823;;;;578887;244;24068;-79
2022/11/03 10:28:11;;;;;;;6.93;1.70;;;13.30;94.70;12.60;100826;;;;576262;244;24149;-80
2022/11/03 10:30:57;;;;;;;1.27;0.80;;;13.20;95.50;12.40;100817;;;;579114;244;24115;-80
2022/11/03 10:33:31;;;;;;;2.17;1.00;;;13.10;96.30;12.30;100816;;;;579278;244;24167;-81
2022/11/03 10:35:59;;;;;;;6.57;1.53;;;12.90;97.30;12.20;100808;;;;579598;244;24040;-79
2022/11/03 10:38:33;;;;;;;2.43;1.17;;;12.80;98.10;12.10;100801;;;;578990;244;24061;-81
2022/11/03 10:41:16;;;;;;;1.60;1.00;;;12.60;99.40;12.00;100803;;;;588729;244;24052;-79
2022/11/03 10:43:47;;;;;;;3.50;1.10;;;12.60;99.40;11.80;100798;;;;577137;244;24104;-80
2022/11/03 10:46:18;;;;;;;5.70;1.20;;;12.50;99.90;11.80;100800;;;;575062;244;24079;-79
2022/11/03 10:49:04;;;;;;;2.37;1.07;;;12.40;99.90;11.70;100789;;;;579528;244;24078;-79
2022/11/03 10:51:35;;;;;;;3.50;0.97;;;12.30;99.90;11.60;100787;;;;579366;244;24055;-80
2022/11/03 10:54:01;;;;;;;5.40;1.47;;;12.20;99.90;11.50;100791;;;;578626;244;24065;-80
2022/11/03 10:56:30;;;;;;;4.93;1.10;;;12.10;99.90;11.40;100791;;;;580704;243;24112;-79
2022/11/03 10:58:59;;;;;;;4.33;1.03;;;12.00;99.90;11.30;100796;;;;589027;243;24071;-81
2022/11/03 11:01:27;;;;;;;7.20;1.43;;;12.00;99.90;11.30;100786;;;;579886;244;24058;-80
2022/11/03 11:03:54;;;;;;;3.60;1.20;;;11.90;99.90;11.20;100788;;;;579583;244;24117;-80
2022/11/03 11:06:28;;;;;;;7.13;1.40;;;11.90;99.90;11.20;100775;;;;588300;242;24114;-81
2022/11/03 11:08:56;;;;;;;2.93;1.03;;;11.80;99.90;11.10;100776;;;;575120;244;24075;-80
2022/11/03 11:11:22;;;;;;;3.77;1.10;;;11.80;99.90;11.10;100781;;;;578896;244;24159;-80
2022/11/03 11:14:35;;;;;;;7.10;1.30;;;11.70;99.90;11.00;100768;;;;588149;243;24063;-80
2022/11/03 11:16:59;;;;;;;6.40;1.50;;;11.70;99.90;10.90;100774;;;;579201;244;24071;-80
2022/11/03 11:19:27;;;;;;;2.93;1.07;;;11.60;99.90;10.90;100767;;;;579562;244;24090;-80
2022/11/03 11:21:55;;;;;;;2.03;1.17;;;11.60;99.90;10.90;100755;;;;579461;244;24083;-80
2022/11/03 11:24:42;;;;;;;7.63;1.30;;;11.50;99.90;10.80;100759;;;;579551;244;24047;-80
2022/11/03 11:27:32;;;;;;;3.07;1.17;;;11.50;99.90;10.80;100757;;;;588618;243;24052;-81
2022/11/03 11:30:03;;;;;;;3.23;1.10;;;11.40;99.90;10.70;100748;;;;588569;243;24057;-80
2022/11/03 11:32:49;;;;;;;2.77;1.00;;;11.40;99.90;10.60;100754;;;;578994;244;24067;-80
2022/11/03 11:35:26;;;;;;;2.53;1.30;;;11.30;99.90;10.60;100755;;;;579213;244;24062;-81
2022/11/03 11:37:54;;;;;;;6.80;1.50;;;11.30;99.90;10.60;100744;;;;579548;244;24064;-79
2022/11/03 11:40:25;;;;;;;6.30;1.43;;;11.20;99.90;10.50;100747;;;;579132;244;24139;-80
2022/11/03 11:43:09;;;;;;;6.77;1.70;;;11.20;99.90;10.50;100744;;;;578943;244;24107;-80
2022/11/03 11:46:23;;;;;;;2.83;1.63;;;11.10;99.90;10.40;100741;;;;579558;243;24082;-80
2022/11/03 11:48:57;;;;;;;2.43;1.43;;;11.10;99.90;10.30;100742;;;;579226;244;24063;-80
2022/11/03 11:51:28;;;;;;;14.30;1.90;;;11.00;99.90;10.30;100737;;;;579198;244;24085;-80
2022/11/03 11:53:53;;;;;;;3.53;1.97;;;11.00;99.90;10.20;100730;;;;578935;244;24069;-80
2022/11/03 11:56:20;;;;;;;5.13;1.50;;;10.90;99.90;10.20;100731;;;;579120;244;24136;-80